sensor_id;sensor_type;location;lat;lon;timestamp;temperature;humidity
9762;DHT22;4920;49.594;11.022;2024-01-07T00:00:04;4.60;99.90
9762;DHT22;4920;49.594;11.022;2024-01-07T00:02:33;4.60;99.90
9762;DHT22;4920;49.594;11.022;2024-01-07T00:05:06;4.60;99.90
9762;DHT22;4920;49.594;11.022;2024-01-07T00:07:35;4.60;99.90
9762;DHT22;4920;49.594;11.022;2024-01-07T00:10:04;4.60;99.90
9762;DHT22;4920;49.594;11.022;2024-01-07T00:12:33;4.60;99.90
9762;DHT22;4920;49.594;11.022;2024-01-07T00:15:03;4.60;99.90
9762;DHT22;4920;49.594;11.022;2024-01-07T00:17:32;4.60;99.90
9762;DHT22;4920;49.594;11.022;2024-01-07T00:20:02;4.60;99.90
9762;DHT22;4920;49.594;11.022;2024-01-07T00:22:33;4.60;99.90
9762;DHT22;4920;49.594;11.022;2024-01-07T00:25:02;4.50;99.90
9762;DHT22;4920;49.594;11.022;2024-01-07T00:27:31;4.50;99.90
9762;DHT22;4920;49.594;11.022;2024-01-07T00:30:01;4.50;99.90
9762;DHT22;4920;49.594;11.022;2024-01-07T00:32:30;4.60;99.90
9762;DHT22;4920;49.594;11.022;2024-01-07T00:34:59;4.60;99.90
9762;DHT22;4920;49.594;11.022;2024-01-07T00:37:28;4.60;99.90
9762;DHT22;4920;49.594;11.022;2024-01-07T00:39:58;4.60;99.90
9762;DHT22;4920;49.594;11.022;2024-01-07T00:42:27;4.60;99.90
9762;DHT22;4920;49.594;11.022;2024-01-07T00:44:56;4.60;99.90
9762;DHT22;4920;49.594;11.022;2024-01-07T00:47:26;4.50;99.90
9762;DHT22;4920;49.594;11.022;2024-01-07T00:49:55;4.50;99.90
9762;DHT22;4920;49.594;11.022;2024-01-07T00:52:24;4.50;99.90
9762;DHT22;4920;49.594;11.022;2024-01-07T00:54:53;4.50;99.90
9762;DHT22;4920;49.594;11.022;2024-01-07T00:57:24;4.50;99.90
9762;DHT22;4920;49.594;11.022;2024-01-07T00:59:53;4.50;99.90
9762;DHT22;4920;49.594;11.022;2024-01-07T01:02:22;4.50;99.90
9762;DHT22;4920;49.594;11.022;2024-01-07T01:04:51;4.50;99.90
9762;DHT22;4920;49.594;11.022;2024-01-07T01:07:20;4.60;99.90
9762;DHT22;4920;49.594;11.022;2024-01-07T01:09:49;4.50;99.90
9762;DHT22;4920;49.594;11.022;2024-01-07T01:12:18;4.60;99.90
9762;DHT22;4920;49.594;11.022;2024-01-07T01:14:50;4.50;99.90
9762;DHT22;4920;49.594;11.022;2024-01-07T01:17:19;4.50;99.90
9762;DHT22;4920;49.594;11.022;2024-01-07T01:19:48;4.50;99.90
9762;DHT22;4920;49.594;11.022;2024-01-07T01:22:17;4.50;99.90
9762;DHT22;4920;49.594;11.022;2024-01-07T01:24:46;4.50;99.90
9762;DHT22;4920;49.594;11.022;2024-01-07T01:27:16;4.50;99.90
9762;DHT22;4920;49.594;11.022;2024-01-07T01:29:45;4.60;99.90
9762;DHT22;4920;49.594;11.022;2024-01-07T01:32:15;4.50;99.90
9762;DHT22;4920;49.594;11.022;2024-01-07T01:34:46;4.50;99.90
9762;DHT22;4920;49.594;11.022;2024-01-07T01:37:15;4.50;99.90
9762;DHT22;4920;49.594;11.022;2024-01-07T01:39:44;4.50;99.90
9762;DHT22;4920;49.594;11.022;2024-01-07T01:42:13;4.50;99.90
9762;DHT22;4920;49.594;11.022;2024-01-07T01:44:42;4.50;99.90
9762;DHT22;4920;49.594;11.022;2024-01-07T01:47:11;4.50;99.90
9762;DHT22;4920;49.594;11.022;2024-01-07T01:49:43;4.50;99.90
9762;DHT22;4920;49.594;11.022;2024-01-07T01:52:12;4.60;99.90
9762;DHT22;4920;49.594;11.022;2024-01-07T01:54:42;4.60;99.90
9762;DHT22;4920;49.594;11.022;2024-01-07T01:57:15;4.70;99.90
9762;DHT22;4920;49.594;11.022;2024-01-07T01:59:45;4.70;99.90
9762;DHT22;4920;49.594;11.022;2024-01-07T02:02:14;4.80;99.90
9762;DHT22;4920;49.594;11.022;2024-01-07T02:04:45;4.70;99.90
9762;DHT22;4920;49.594;11.022;2024-01-07T02:07:14;4.80;99.90
9762;DHT22;4920;49.594;11.022;2024-01-07T02:09:43;4.80;99.90
9762;DHT22;4920;49.594;11.022;2024-01-07T02:12:12;4.70;99.90
9762;DHT22;4920;49.594;11.022;2024-01-07T02:14:41;4.70;99.90
9762;DHT22;4920;49.594;11.022;2024-01-07T02:17:10;4.60;99.90
9762;DHT22;4920;49.594;11.022;2024-01-07T02:19:40;4.60;99.90
9762;DHT22;4920;49.594;11.022;2024-01-07T02:22:11;4.60;99.90
9762;DHT22;4920;49.594;11.022;2024-01-07T02:24:42;4.60;99.90
9762;DHT22;4920;49.594;11.022;2024-01-07T02:27:11;4.60;99.90
9762;DHT22;4920;49.594;11.022;2024-01-07T02:29:40;4.50;99.90
9762;DHT22;4920;49.594;11.022;2024-01-07T02:32:09;4.50;99.90
9762;DHT22;4920;49.594;11.022;2024-01-07T02:34:38;4.40;99.90
9762;DHT22;4920;49.594;11.022;2024-01-07T02:37:08;4.50;99.90
9762;DHT22;4920;49.594;11.022;2024-01-07T02:39:38;4.40;99.90
9762;DHT22;4920;49.594;11.022;2024-01-07T02:42:09;4.50;99.90
9762;DHT22;4920;49.594;11.022;2024-01-07T02:44:38;4.40;99.90
9762;DHT22;4920;49.594;11.022;2024-01-07T02:47:09;4.40;99.90
9762;DHT22;4920;49.594;11.022;2024-01-07T02:49:37;4.30;99.90
9762;DHT22;4920;49.594;11.022;2024-01-07T02:52:06;4.30;99.90
9762;DHT22;4920;49.594;11.022;2024-01-07T02:54:35;4.20;99.90
9762;DHT22;4920;49.594;11.022;2024-01-07T02:57:04;4.20;99.90
9762;DHT22;4920;49.594;11.022;2024-01-07T02:59:35;4.20;99.90
9762;DHT22;4920;49.594;11.022;2024-01-07T03:02:03;4.20;99.90
9762;DHT22;4920;49.594;11.022;2024-01-07T03:04:32;4.20;99.90
9762;DHT22;4920;49.594;11.022;2024-01-07T03:07:02;4.10;99.90
9762;DHT22;4920;49.594;11.022;2024-01-07T03:09:31;4.10;99.90
9762;DHT22;4920;49.594;11.022;2024-01-07T03:12:00;4.00;99.90
9762;DHT22;4920;49.594;11.022;2024-01-07T03:14:29;4.00;99.90
9762;DHT22;4920;49.594;11.022;2024-01-07T03:16:59;4.10;99.90
9762;DHT22;4920;49.594;11.022;2024-01-07T03:19:28;4.20;99.90
9762;DHT22;4920;49.594;11.022;2024-01-07T03:21:57;4.20;99.90
9762;DHT22;4920;49.594;11.022;2024-01-07T03:24:26;4.20;99.90
9762;DHT22;4920;49.594;11.022;2024-01-07T03:26:55;4.20;99.90
9762;DHT22;4920;49.594;11.022;2024-01-07T03:29:24;4.20;99.90
9762;DHT22;4920;49.594;11.022;2024-01-07T03:31:53;4.20;99.90
9762;DHT22;4920;49.594;11.022;2024-01-07T03:34:23;4.10;99.90
9762;DHT22;4920;49.594;11.022;2024-01-07T03:36:52;4.10;99.90
9762;DHT22;4920;49.594;11.022;2024-01-07T03:39:21;4.10;99.90
9762;DHT22;4920;49.594;11.022;2024-01-07T03:41:54;4.10;99.90
9762;DHT22;4920;49.594;11.022;2024-01-07T03:44:23;4.10;99.90
9762;DHT22;4920;49.594;11.022;2024-01-07T03:46:52;4.00;99.90
9762;DHT22;4920;49.594;11.022;2024-01-07T03:49:23;4.10;99.90
9762;DHT22;4920;49.594;11.022;2024-01-07T03:51:52;4.00;99.90
9762;DHT22;4920;49.594;11.022;2024-01-07T03:54:21;4.10;99.90
9762;DHT22;4920;49.594;11.022;2024-01-07T03:56:50;4.10;99.90
9762;DHT22;4920;49.594;11.022;2024-01-07T03:59:19;4.00;99.90
9762;DHT22;4920;49.594;11.022;2024-01-07T04:01:50;4.00;99.90
9762;DHT22;4920;49.594;11.022;2024-01-07T04:04:19;4.00;99.90
9762;DHT22;4920;49.594;11.022;2024-01-07T04:06:50;4.10;99.90
9762;DHT22;4920;49.594;11.022;2024-01-07T04:09:19;4.00;99.90
9762;DHT22;4920;49.594;11.022;2024-01-07T04:11:48;4.10;99.90
9762;DHT22;4920;49.594;11.022;2024-01-07T04:14:17;4.00;99.90
9762;DHT22;4920;49.594;11.022;2024-01-07T04:16:46;4.00;99.90
9762;DHT22;4920;49.594;11.022;2024-01-07T04:19:15;3.90;99.90
9762;DHT22;4920;49.594;11.022;2024-01-07T04:21:46;3.90;99.90
9762;DHT22;4920;49.594;11.022;2024-01-07T04:24:16;3.90;99.90
9762;DHT22;4920;49.594;11.022;2024-01-07T04:26:45;3.90;99.90
9762;DHT22;4920;49.594;11.022;2024-01-07T04:29:14;3.80;99.90
9762;DHT22;4920;49.594;11.022;2024-01-07T04:31:43;3.80;99.90
9762;DHT22;4920;49.594;11.022;2024-01-07T04:34:11;3.80;99.90
9762;DHT22;4920;49.594;11.022;2024-01-07T04:36:40;3.70;99.90
9762;DHT22;4920;49.594;11.022;2024-01-07T04:39:09;3.70;99.90
9762;DHT22;4920;49.594;11.022;2024-01-07T04:41:39;3.60;99.90
9762;DHT22;4920;49.594;11.022;2024-01-07T04:44:10;3.60;99.90
9762;DHT22;4920;49.594;11.022;2024-01-07T04:46:39;3.60;99.90
9762;DHT22;4920;49.594;11.022;2024-01-07T04:49:08;3.60;99.90
9762;DHT22;4920;49.594;11.022;2024-01-07T04:51:37;3.50;99.90
9762;DHT22;4920;49.594;11.022;2024-01-07T04:54:06;3.60;99.90
9762;DHT22;4920;49.594;11.022;2024-01-07T04:56:35;3.60;99.90
9762;DHT22;4920;49.594;11.022;2024-01-07T04:59:07;3.50;99.90
9762;DHT22;4920;49.594;11.022;2024-01-07T05:01:35;3.50;99.90
9762;DHT22;4920;49.594;11.022;2024-01-07T05:04:04;3.40;99.90
9762;DHT22;4920;49.594;11.022;2024-01-07T05:06:34;3.30;99.90
9762;DHT22;4920;49.594;11.022;2024-01-07T05:09:03;3.30;99.90
9762;DHT22;4920;49.594;11.022;2024-01-07T05:11:32;3.20;99.90
9762;DHT22;4920;49.594;11.022;2024-01-07T05:14:01;3.20;99.90
9762;DHT22;4920;49.594;11.022;2024-01-07T05:16:31;3.20;99.90
9762;DHT22;4920;49.594;11.022;2024-01-07T05:19:00;3.20;99.90
9762;DHT22;4920;49.594;11.022;2024-01-07T05:21:31;3.20;99.90
9762;DHT22;4920;49.594;11.022;2024-01-07T05:24:00;3.10;99.90
9762;DHT22;4920;49.594;11.022;2024-01-07T05:26:29;3.10;99.90
9762;DHT22;4920;49.594;11.022;2024-01-07T05:28:58;3.00;99.90
9762;DHT22;4920;49.594;11.022;2024-01-07T05:31:27;3.00;99.90
9762;DHT22;4920;49.594;11.022;2024-01-07T05:33:57;3.00;99.90
9762;DHT22;4920;49.594;11.022;2024-01-07T05:36:27;3.00;99.90
9762;DHT22;4920;49.594;11.022;2024-01-07T05:38:56;3.00;99.90
9762;DHT22;4920;49.594;11.022;2024-01-07T05:41:25;3.10;99.90
9762;DHT22;4920;49.594;11.022;2024-01-07T05:43:54;3.10;99.90
9762;DHT22;4920;49.594;11.022;2024-01-07T05:46:23;3.10;99.90
9762;DHT22;4920;49.594;11.022;2024-01-07T05:48:52;3.10;99.90
9762;DHT22;4920;49.594;11.022;2024-01-07T05:51:22;3.00;99.90
9762;DHT22;4920;49.594;11.022;2024-01-07T05:53:51;3.10;99.90
9762;DHT22;4920;49.594;11.022;2024-01-07T05:56:20;3.10;99.90
9762;DHT22;4920;49.594;11.022;2024-01-07T05:58:49;3.00;99.90
9762;DHT22;4920;49.594;11.022;2024-01-07T06:01:19;2.90;99.90
9762;DHT22;4920;49.594;11.022;2024-01-07T06:03:48;3.00;99.90
9762;DHT22;4920;49.594;11.022;2024-01-07T06:06:17;2.90;99.90
9762;DHT22;4920;49.594;11.022;2024-01-07T06:08:48;2.90;99.90
9762;DHT22;4920;49.594;11.022;2024-01-07T06:11:17;2.90;99.90
9762;DHT22;4920;49.594;11.022;2024-01-07T06:13:47;2.90;99.90
9762;DHT22;4920;49.594;11.022;2024-01-07T06:16:16;2.90;99.90
9762;DHT22;4920;49.594;11.022;2024-01-07T06:18:46;2.90;99.90
9762;DHT22;4920;49.594;11.022;2024-01-07T06:21:15;2.90;99.90
9762;DHT22;4920;49.594;11.022;2024-01-07T06:23:44;2.90;99.90
9762;DHT22;4920;49.594;11.022;2024-01-07T06:26:15;2.90;99.90
9762;DHT22;4920;49.594;11.022;2024-01-07T06:28:44;2.90;99.90
9762;DHT22;4920;49.594;11.022;2024-01-07T06:31:13;3.00;99.90
9762;DHT22;4920;49.594;11.022;2024-01-07T06:33:42;2.90;99.90
9762;DHT22;4920;49.594;11.022;2024-01-07T06:36:11;2.90;99.90
9762;DHT22;4920;49.594;11.022;2024-01-07T06:38:41;2.90;99.90
9762;DHT22;4920;49.594;11.022;2024-01-07T06:41:11;2.90;99.90
9762;DHT22;4920;49.594;11.022;2024-01-07T06:43:41;2.90;99.90
9762;DHT22;4920;49.594;11.022;2024-01-07T06:46:10;2.90;99.90
9762;DHT22;4920;49.594;11.022;2024-01-07T06:48:40;2.90;99.90
9762;DHT22;4920;49.594;11.022;2024-01-07T06:51:15;2.90;99.90
9762;DHT22;4920;49.594;11.022;2024-01-07T06:53:44;2.90;99.90
9762;DHT22;4920;49.594;11.022;2024-01-07T06:56:13;2.80;99.90
9762;DHT22;4920;49.594;11.022;2024-01-07T06:58:44;2.80;99.90
9762;DHT22;4920;49.594;11.022;2024-01-07T07:01:13;2.70;99.90
9762;DHT22;4920;49.594;11.022;2024-01-07T07:03:46;2.60;99.90
9762;DHT22;4920;49.594;11.022;2024-01-07T07:06:15;2.70;99.90
9762;DHT22;4920;49.594;11.022;2024-01-07T07:08:45;2.70;99.90
9762;DHT22;4920;49.594;11.022;2024-01-07T07:11:14;2.70;99.90
9762;DHT22;4920;49.594;11.022;2024-01-07T07:13:44;2.60;99.90
9762;DHT22;4920;49.594;11.022;2024-01-07T07:16:13;2.60;99.90
9762;DHT22;4920;49.594;11.022;2024-01-07T07:18:42;2.60;99.90
9762;DHT22;4920;49.594;11.022;2024-01-07T07:21:12;2.60;99.90
9762;DHT22;4920;49.594;11.022;2024-01-07T07:23:41;2.60;99.90
9762;DHT22;4920;49.594;11.022;2024-01-07T07:26:09;2.50;99.90
9762;DHT22;4920;49.594;11.022;2024-01-07T07:28:38;2.50;99.90
9762;DHT22;4920;49.594;11.022;2024-01-07T07:31:10;2.50;99.90
9762;DHT22;4920;49.594;11.022;2024-01-07T07:33:40;2.50;99.90
9762;DHT22;4920;49.594;11.022;2024-01-07T07:36:09;2.60;99.90
9762;DHT22;4920;49.594;11.022;2024-01-07T07:38:38;2.50;99.90
9762;DHT22;4920;49.594;11.022;2024-01-07T07:41:07;2.50;99.90
9762;DHT22;4920;49.594;11.022;2024-01-07T07:43:36;2.40;99.90
9762;DHT22;4920;49.594;11.022;2024-01-07T07:46:05;2.50;99.90
9762;DHT22;4920;49.594;11.022;2024-01-07T07:48:35;2.50;99.90
9762;DHT22;4920;49.594;11.022;2024-01-07T07:51:04;2.50;99.90
9762;DHT22;4920;49.594;11.022;2024-01-07T07:53:33;2.50;99.90
9762;DHT22;4920;49.594;11.022;2024-01-07T07:56:02;2.60;99.90
9762;DHT22;4920;49.594;11.022;2024-01-07T07:58:32;2.50;99.90
9762;DHT22;4920;49.594;11.022;2024-01-07T08:01:00;2.60;99.90
9762;DHT22;4920;49.594;11.022;2024-01-07T08:03:30;2.60;99.90
9762;DHT22;4920;49.594;11.022;2024-01-07T08:06:01;2.60;99.90
9762;DHT22;4920;49.594;11.022;2024-01-07T08:08:30;2.60;99.90
9762;DHT22;4920;49.594;11.022;2024-01-07T08:10:59;2.60;99.90
9762;DHT22;4920;49.594;11.022;2024-01-07T08:13:28;2.50;99.90
9762;DHT22;4920;49.594;11.022;2024-01-07T08:15:57;2.40;99.90
9762;DHT22;4920;49.594;11.022;2024-01-07T08:18:26;2.40;99.90
9762;DHT22;4920;49.594;11.022;2024-01-07T08:20:56;2.50;99.90
9762;DHT22;4920;49.594;11.022;2024-01-07T08:23:27;2.40;99.90
9762;DHT22;4920;49.594;11.022;2024-01-07T08:25:56;2.50;99.90
9762;DHT22;4920;49.594;11.022;2024-01-07T08:28:25;2.40;99.90
9762;DHT22;4920;49.594;11.022;2024-01-07T08:30:54;2.50;99.90
9762;DHT22;4920;49.594;11.022;2024-01-07T08:33:23;2.40;99.90
9762;DHT22;4920;49.594;11.022;2024-01-07T08:35:52;2.40;99.90
9762;DHT22;4920;49.594;11.022;2024-01-07T08:38:21;2.40;99.90
9762;DHT22;4920;49.594;11.022;2024-01-07T08:40:52;2.40;99.90
9762;DHT22;4920;49.594;11.022;2024-01-07T08:43:21;2.30;99.90
9762;DHT22;4920;49.594;11.022;2024-01-07T08:45:51;2.20;99.90
9762;DHT22;4920;49.594;11.022;2024-01-07T08:48:20;2.20;99.90
9762;DHT22;4920;49.594;11.022;2024-01-07T08:50:49;2.10;99.90
9762;DHT22;4920;49.594;11.022;2024-01-07T08:57:01;2.00;99.90
9762;DHT22;4920;49.594;11.022;2024-01-07T08:59:30;2.00;99.90
9762;DHT22;4920;49.594;11.022;2024-01-07T09:01:59;2.00;99.90
9762;DHT22;4920;49.594;11.022;2024-01-07T09:04:28;1.90;99.90
9762;DHT22;4920;49.594;11.022;2024-01-07T09:06:57;2.00;99.90
9762;DHT22;4920;49.594;11.022;2024-01-07T09:09:25;1.90;99.90
9762;DHT22;4920;49.594;11.022;2024-01-07T09:11:55;1.90;99.90
9762;DHT22;4920;49.594;11.022;2024-01-07T09:14:28;1.90;99.90
9762;DHT22;4920;49.594;11.022;2024-01-07T09:16:57;1.80;99.90
9762;DHT22;4920;49.594;11.022;2024-01-07T09:19:26;1.80;99.90
9762;DHT22;4920;49.594;11.022;2024-01-07T09:21:55;1.70;99.90
9762;DHT22;4920;49.594;11.022;2024-01-07T09:24:24;1.70;99.90
9762;DHT22;4920;49.594;11.022;2024-01-07T09:26:52;1.70;99.90
9762;DHT22;4920;49.594;11.022;2024-01-07T09:29:22;1.70;99.90
9762;DHT22;4920;49.594;11.022;2024-01-07T09:31:52;1.60;99.90
9762;DHT22;4920;49.594;11.022;2024-01-07T09:34:22;1.60;99.90
9762;DHT22;4920;49.594;11.022;2024-01-07T09:36:50;1.60;99.90
9762;DHT22;4920;49.594;11.022;2024-01-07T09:39:20;1.60;99.90
9762;DHT22;4920;49.594;11.022;2024-01-07T09:41:49;1.60;99.90
9762;DHT22;4920;49.594;11.022;2024-01-07T09:44:18;1.60;99.90
9762;DHT22;4920;49.594;11.022;2024-01-07T09:46:48;1.60;99.90
9762;DHT22;4920;49.594;11.022;2024-01-07T09:49:20;1.50;99.90
9762;DHT22;4920;49.594;11.022;2024-01-07T09:51:51;1.60;99.90
9762;DHT22;4920;49.594;11.022;2024-01-07T09:54:23;1.50;99.90
9762;DHT22;4920;49.594;11.022;2024-01-07T09:57:00;1.50;99.90
9762;DHT22;4920;49.594;11.022;2024-01-07T09:59:30;1.60;99.90
9762;DHT22;4920;49.594;11.022;2024-01-07T10:01:59;1.60;99.90
9762;DHT22;4920;49.594;11.022;2024-01-07T10:04:30;1.50;99.90
9762;DHT22;4920;49.594;11.022;2024-01-07T10:06:59;1.50;99.90
9762;DHT22;4920;49.594;11.022;2024-01-07T10:09:30;1.50;99.90
9762;DHT22;4920;49.594;11.022;2024-01-07T10:11:59;1.50;99.90
9762;DHT22;4920;49.594;11.022;2024-01-07T10:14:29;1.40;99.90
9762;DHT22;4920;49.594;11.022;2024-01-07T10:17:00;1.40;99.90
9762;DHT22;4920;49.594;11.022;2024-01-07T10:19:31;1.40;99.90
9762;DHT22;4920;49.594;11.022;2024-01-07T10:22:00;1.40;99.90
9762;DHT22;4920;49.594;11.022;2024-01-07T10:24:35;1.40;99.90
9762;DHT22;4920;49.594;11.022;2024-01-07T10:27:07;1.50;99.90
9762;DHT22;4920;49.594;11.022;2024-01-07T10:29:36;1.50;99.90
9762;DHT22;4920;49.594;11.022;2024-01-07T10:32:06;1.50;99.90
9762;DHT22;4920;49.594;11.022;2024-01-07T10:34:37;1.40;99.90
9762;DHT22;4920;49.594;11.022;2024-01-07T10:37:06;1.40;99.90
9762;DHT22;4920;49.594;11.022;2024-01-07T10:39:37;1.50;99.90
9762;DHT22;4920;49.594;11.022;2024-01-07T10:42:06;1.50;99.90
9762;DHT22;4920;49.594;11.022;2024-01-07T10:44:38;1.40;99.90
9762;DHT22;4920;49.594;11.022;2024-01-07T10:47:07;1.30;99.90
9762;DHT22;4920;49.594;11.022;2024-01-07T10:49:40;1.30;99.90
9762;DHT22;4920;49.594;11.022;2024-01-07T10:52:13;1.30;99.90
9762;DHT22;4920;49.594;11.022;2024-01-07T10:54:42;1.30;99.90
9762;DHT22;4920;49.594;11.022;2024-01-07T10:57:15;1.20;99.90
9762;DHT22;4920;49.594;11.022;2024-01-07T10:59:47;1.20;99.90
9762;DHT22;4920;49.594;11.022;2024-01-07T11:02:19;1.30;99.90
9762;DHT22;4920;49.594;11.022;2024-01-07T11:04:56;1.20;99.90
9762;DHT22;4920;49.594;11.022;2024-01-07T11:07:34;1.30;99.90
9762;DHT22;4920;49.594;11.022;2024-01-07T11:10:08;1.40;99.90
9762;DHT22;4920;49.594;11.022;2024-01-07T11:12:39;1.30;99.90
9762;DHT22;4920;49.594;11.022;2024-01-07T11:15:08;1.40;99.90
9762;DHT22;4920;49.594;11.022;2024-01-07T11:17:41;1.30;99.90
9762;DHT22;4920;49.594;11.022;2024-01-07T11:20:20;1.30;99.90
9762;DHT22;4920;49.594;11.022;2024-01-07T11:22:49;1.30;99.90
9762;DHT22;4920;49.594;11.022;2024-01-07T11:25:29;1.20;99.90
9762;DHT22;4920;49.594;11.022;2024-01-07T11:28:01;1.20;99.90
9762;DHT22;4920;49.594;11.022;2024-01-07T11:30:37;1.30;99.90
9762;DHT22;4920;49.594;11.022;2024-01-07T11:33:11;1.30;99.90
9762;DHT22;4920;49.594;11.022;2024-01-07T11:35:59;1.40;99.90
9762;DHT22;4920;49.594;11.022;2024-01-07T11:38:30;1.40;99.90
9762;DHT22;4920;49.594;11.022;2024-01-07T11:41:00;1.50;99.90
9762;DHT22;4920;49.594;11.022;2024-01-07T11:43:30;1.40;99.90
9762;DHT22;4920;49.594;11.022;2024-01-07T11:46:00;1.40;99.90
9762;DHT22;4920;49.594;11.022;2024-01-07T11:48:29;1.50;99.90
9762;DHT22;4920;49.594;11.022;2024-01-07T11:51:00;1.50;99.90
9762;DHT22;4920;49.594;11.022;2024-01-07T11:53:29;1.50;99.90
9762;DHT22;4920;49.594;11.022;2024-01-07T11:55:58;1.50;99.90
9762;DHT22;4920;49.594;11.022;2024-01-07T11:58:28;1.40;99.90
9762;DHT22;4920;49.594;11.022;2024-01-07T12:00:57;1.30;99.90
9762;DHT22;4920;49.594;11.022;2024-01-07T12:03:26;1.20;99.90
9762;DHT22;4920;49.594;11.022;2024-01-07T12:05:55;1.20;99.90
9762;DHT22;4920;49.594;11.022;2024-01-07T12:08:25;1.10;99.90
9762;DHT22;4920;49.594;11.022;2024-01-07T12:10:55;1.20;99.90
9762;DHT22;4920;49.594;11.022;2024-01-07T12:13:24;1.20;99.90
9762;DHT22;4920;49.594;11.022;2024-01-07T12:15:53;1.20;99.90
9762;DHT22;4920;49.594;11.022;2024-01-07T12:18:22;1.20;99.90
9762;DHT22;4920;49.594;11.022;2024-01-07T12:20:56;1.20;99.90
9762;DHT22;4920;49.594;11.022;2024-01-07T12:23:28;1.20;99.90
9762;DHT22;4920;49.594;11.022;2024-01-07T12:26:07;1.20;99.90
9762;DHT22;4920;49.594;11.022;2024-01-07T12:28:36;1.40;99.90
9762;DHT22;4920;49.594;11.022;2024-01-07T12:31:05;1.40;99.90
9762;DHT22;4920;49.594;11.022;2024-01-07T12:33:37;1.40;99.90
9762;DHT22;4920;49.594;11.022;2024-01-07T12:36:07;1.30;99.90
9762;DHT22;4920;49.594;11.022;2024-01-07T12:38:38;1.30;99.90
9762;DHT22;4920;49.594;11.022;2024-01-07T12:41:09;1.30;99.90
9762;DHT22;4920;49.594;11.022;2024-01-07T12:43:38;1.30;99.90
9762;DHT22;4920;49.594;11.022;2024-01-07T12:46:06;1.30;99.90
9762;DHT22;4920;49.594;11.022;2024-01-07T12:48:36;1.30;99.90
9762;DHT22;4920;49.594;11.022;2024-01-07T12:51:05;1.30;99.90
9762;DHT22;4920;49.594;11.022;2024-01-07T12:53:34;1.30;99.90
9762;DHT22;4920;49.594;11.022;2024-01-07T12:56:05;1.30;99.90
9762;DHT22;4920;49.594;11.022;2024-01-07T12:58:34;1.30;99.90
9762;DHT22;4920;49.594;11.022;2024-01-07T13:01:03;1.30;99.90
9762;DHT22;4920;49.594;11.022;2024-01-07T13:03:32;1.30;99.90
9762;DHT22;4920;49.594;11.022;2024-01-07T13:06:01;1.20;99.90
9762;DHT22;4920;49.594;11.022;2024-01-07T13:08:31;1.20;99.90
9762;DHT22;4920;49.594;11.022;2024-01-07T13:11:00;1.20;99.90
9762;DHT22;4920;49.594;11.022;2024-01-07T13:13:31;1.20;99.90
9762;DHT22;4920;49.594;11.022;2024-01-07T13:16:00;1.20;99.90
9762;DHT22;4920;49.594;11.022;2024-01-07T13:18:29;1.20;99.90
9762;DHT22;4920;49.594;11.022;2024-01-07T13:20:58;1.10;99.90
9762;DHT22;4920;49.594;11.022;2024-01-07T13:23:28;1.10;99.90
9762;DHT22;4920;49.594;11.022;2024-01-07T13:25:57;1.00;99.90
9762;DHT22;4920;49.594;11.022;2024-01-07T13:28:26;1.00;99.90
9762;DHT22;4920;49.594;11.022;2024-01-07T13:30:56;1.00;99.90
9762;DHT22;4920;49.594;11.022;2024-01-07T13:33:25;1.00;99.90
9762;DHT22;4920;49.594;11.022;2024-01-07T13:35:55;1.10;99.90
9762;DHT22;4920;49.594;11.022;2024-01-07T13:38:24;1.00;99.90
9762;DHT22;4920;49.594;11.022;2024-01-07T13:40:52;1.10;99.90
9762;DHT22;4920;49.594;11.022;2024-01-07T13:43:25;1.10;99.90
9762;DHT22;4920;49.594;11.022;2024-01-07T13:45:58;1.00;99.90
9762;DHT22;4920;49.594;11.022;2024-01-07T13:48:27;0.90;99.90
9762;DHT22;4920;49.594;11.022;2024-01-07T13:50:56;1.00;99.90
9762;DHT22;4920;49.594;11.022;2024-01-07T13:53:25;0.90;99.90
9762;DHT22;4920;49.594;11.022;2024-01-07T13:55:54;0.80;99.90
9762;DHT22;4920;49.594;11.022;2024-01-07T13:58:23;0.80;99.90
9762;DHT22;4920;49.594;11.022;2024-01-07T14:00:52;0.80;99.90
9762;DHT22;4920;49.594;11.022;2024-01-07T14:03:23;0.80;99.90
9762;DHT22;4920;49.594;11.022;2024-01-07T14:05:52;0.80;99.90
9762;DHT22;4920;49.594;11.022;2024-01-07T14:08:21;0.70;99.90
9762;DHT22;4920;49.594;11.022;2024-01-07T14:10:50;0.70;99.90
9762;DHT22;4920;49.594;11.022;2024-01-07T14:13:19;0.70;99.90
9762;DHT22;4920;49.594;11.022;2024-01-07T14:15:47;0.70;99.90
9762;DHT22;4920;49.594;11.022;2024-01-07T14:18:17;0.60;99.90
9762;DHT22;4920;49.594;11.022;2024-01-07T14:20:50;0.60;99.90
9762;DHT22;4920;49.594;11.022;2024-01-07T14:23:19;0.60;99.90
9762;DHT22;4920;49.594;11.022;2024-01-07T14:25:48;0.60;99.90
9762;DHT22;4920;49.594;11.022;2024-01-07T14:28:17;0.60;99.90
9762;DHT22;4920;49.594;11.022;2024-01-07T14:30:46;0.60;99.90
9762;DHT22;4920;49.594;11.022;2024-01-07T14:33:16;0.60;99.90
9762;DHT22;4920;49.594;11.022;2024-01-07T14:35:45;0.60;99.90
9762;DHT22;4920;49.594;11.022;2024-01-07T14:38:15;0.60;99.90
9762;DHT22;4920;49.594;11.022;2024-01-07T14:40:44;0.70;99.90
9762;DHT22;4920;49.594;11.022;2024-01-07T14:43:14;0.70;99.90
9762;DHT22;4920;49.594;11.022;2024-01-07T14:45:43;0.70;99.90
9762;DHT22;4920;49.594;11.022;2024-01-07T14:48:12;0.70;99.90
9762;DHT22;4920;49.594;11.022;2024-01-07T14:50:42;0.70;99.90
9762;DHT22;4920;49.594;11.022;2024-01-07T14:53:16;0.60;99.90
9762;DHT22;4920;49.594;11.022;2024-01-07T14:55:45;0.60;99.90
9762;DHT22;4920;49.594;11.022;2024-01-07T14:58:14;0.60;99.90
9762;DHT22;4920;49.594;11.022;2024-01-07T15:00:43;0.60;99.90
9762;DHT22;4920;49.594;11.022;2024-01-07T15:03:13;0.60;99.90
9762;DHT22;4920;49.594;11.022;2024-01-07T15:05:42;0.50;99.90
9762;DHT22;4920;49.594;11.022;2024-01-07T15:08:11;0.40;99.90
9762;DHT22;4920;49.594;11.022;2024-01-07T15:10:43;0.40;99.90
9762;DHT22;4920;49.594;11.022;2024-01-07T15:13:11;0.40;99.90
9762;DHT22;4920;49.594;11.022;2024-01-07T15:15:46;0.40;99.90
9762;DHT22;4920;49.594;11.022;2024-01-07T15:18:16;0.40;99.90
9762;DHT22;4920;49.594;11.022;2024-01-07T15:20:45;0.40;99.90
9762;DHT22;4920;49.594;11.022;2024-01-07T15:23:16;0.40;99.90
9762;DHT22;4920;49.594;11.022;2024-01-07T15:25:46;0.40;99.90
9762;DHT22;4920;49.594;11.022;2024-01-07T15:28:15;0.40;99.90
9762;DHT22;4920;49.594;11.022;2024-01-07T15:30:44;0.30;99.90
9762;DHT22;4920;49.594;11.022;2024-01-07T15:33:13;0.30;99.90
9762;DHT22;4920;49.594;11.022;2024-01-07T15:35:42;0.30;99.90
9762;DHT22;4920;49.594;11.022;2024-01-07T15:38:11;0.30;99.90
9762;DHT22;4920;49.594;11.022;2024-01-07T15:40:40;0.20;99.90
9762;DHT22;4920;49.594;11.022;2024-01-07T15:43:11;0.20;99.90
9762;DHT22;4920;49.594;11.022;2024-01-07T15:45:40;0.20;99.90
9762;DHT22;4920;49.594;11.022;2024-01-07T15:48:09;0.30;99.90
9762;DHT22;4920;49.594;11.022;2024-01-07T15:50:38;0.20;99.90
9762;DHT22;4920;49.594;11.022;2024-01-07T15:53:07;0.10;99.90
9762;DHT22;4920;49.594;11.022;2024-01-07T15:55:38;0.10;99.90
9762;DHT22;4920;49.594;11.022;2024-01-07T15:58:07;0.00;99.90
9762;DHT22;4920;49.594;11.022;2024-01-07T16:00:38;0.00;99.90
9762;DHT22;4920;49.594;11.022;2024-01-07T16:03:07;0.00;99.90
9762;DHT22;4920;49.594;11.022;2024-01-07T16:05:36;0.00;99.90
9762;DHT22;4920;49.594;11.022;2024-01-07T16:08:05;0.00;99.90
9762;DHT22;4920;49.594;11.022;2024-01-07T16:10:34;-0.10;99.90
9762;DHT22;4920;49.594;11.022;2024-01-07T16:13:03;-0.10;99.90
9762;DHT22;4920;49.594;11.022;2024-01-07T16:15:33;-0.20;99.90
9762;DHT22;4920;49.594;11.022;2024-01-07T16:18:04;-0.30;99.90
9762;DHT22;4920;49.594;11.022;2024-01-07T16:20:33;-0.20;99.90